^^
Saratoga-Weather Station Historical Data
Daily Summary for February 7, 2020 Units:  English    Metric   Both
Daily Weekly Monthly Yearly Custom
  High: Low: Average:
Temperature: 46 °F 33.4 °F 41.4 °F
Dew Point: 43.7 °F 32.9 °F 39.9 °F
Humidity: 98% 88% 95%
Wind Speed: 16mph 0mph 1.6mph
Wind Gust: 16mph - -
Wind- - WSW
Pressure: 30.4 in 30.3 in -
Precipitation: 0.01 in    
Historical Graphs
 
 
Tabular Data for February 7, 2020
Time Temperature Dew Point Pressure Wind Wind Speed Wind Gust Humidity Rainfall Rate (Hourly) solar
00:04 33.4 °F 32.9 °F 30.3 in Calm   2 mph 98% 0 in 0 W/m2
00:09 33.6 °F 33.1 °F 30.3 in Calm   1 mph 98% 0 in 0 W/m2
00:14 34.3 °F 33.8 °F 30.3 in Calm   1 mph 98% 0 in 0 W/m2
00:19 35.1 °F 34.5 °F 30.3 in SSE 2 mph 2 mph 98% 0 in 0 W/m2
00:24 35.8 °F 35.2 °F 30.3 in South 4 mph 4 mph 98% 0 in 0 W/m2
00:29 36 °F 35.4 °F 30.3 in Calm   1 mph 98% 0 in 0 W/m2
00:34 36.1 °F 35.6 °F 30.3 in West 0.9 mph 6 mph 98% 0 in 0 W/m2
00:39 36.3 °F 35.8 °F 30.3 in WNW 4.9 mph 6 mph 98% 0 in 0 W/m2
00:44 36.5 °F 36 °F 30.3 in Calm   3 mph 98% 0 in 0 W/m2
00:49 36.3 °F 35.8 °F 30.3 in SSW 2 mph 2 mph 98% 0 in 0 W/m2
00:54 36.3 °F 35.8 °F 30.3 in Calm   3 mph 98% 0 in 0 W/m2
00:59 36.3 °F 35.8 °F 30.3 in Calm   1 mph 98% 0 in 0 W/m2
01:04 36.3 °F 35.8 °F 30.3 in Calm   3 mph 98% 0 in 0 W/m2
01:09 36.5 °F 36 °F 30.3 in Calm     98% 0 in 0 W/m2
01:14 36.3 °F 35.8 °F 30.3 in Calm   2 mph 98% 0 in 0 W/m2
01:20 36.3 °F 35.8 °F 30.3 in Calm   2 mph 98% 0 in 0 W/m2
01:25 36.3 °F 35.8 °F 30.3 in West 2 mph 6 mph 98% 0 in 0 W/m2
01:30 36.7 °F 36.1 °F 30.3 in East 0.9 mph 4 mph 98% 0 in 0 W/m2
01:35 36.9 °F 36.3 °F 30.3 in NW 2 mph 2 mph 98% 0 in 0 W/m2
01:40 36.9 °F 36.3 °F 30.3 in Calm   3 mph 98% 0 in 0 W/m2
01:45 37 °F 36.5 °F 30.3 in West 9 mph 9 mph 98% 0 in 0 W/m2
01:50 37.2 °F 36.7 °F 30.3 in West 8.1 mph 10 mph 98% 0 in 0 W/m2
01:55 37.6 °F 37 °F 30.3 in NW 6.9 mph 9 mph 98% 0 in 0 W/m2
02:00 37.6 °F 37 °F 30.3 in WNW 2.9 mph 14 mph 98% 0 in 0 W/m2
02:05 37.8 °F 37.2 °F 30.3 in West 10.1 mph 16 mph 98% 0 in 0 W/m2
02:10 37.9 °F 37.4 °F 30.3 in WNW 4 mph 8 mph 98% 0.01 in 0 W/m2
02:15 37.9 °F 37.4 °F 30.3 in WNW 16 mph 16 mph 98% 0.01 in 0 W/m2
02:20 37.9 °F 37.4 °F 30.3 in WSW 8.9 mph 10 mph 98% 0.01 in 0 W/m2
02:26 38.1 °F 37.6 °F 30.3 in WSW 4 mph 14 mph 98% 0.01 in 0 W/m2
02:31 38.1 °F 37.6 °F 30.3 in WNW 2.9 mph 6 mph 98% 0.01 in 0 W/m2
02:36 38.5 °F 37.9 °F 30.3 in West 2 mph 7 mph 98% 0.01 in 0 W/m2
02:41 38.5 °F 37.9 °F 30.3 in Calm   3 mph 98% 0.01 in 0 W/m2
02:46 38.5 °F 37.9 °F 30.3 in West 4 mph 8 mph 98% 0.01 in 0 W/m2
02:51 38.7 °F 38.1 °F 30.3 in West 0.9 mph 4 mph 98% 0.01 in 0 W/m2
02:56 38.8 °F 38.3 °F 30.3 in Calm   6 mph 98% 0.01 in 0 W/m2
03:01 38.8 °F 38.3 °F 30.3 in WSW 2 mph 7 mph 98% 0.01 in 0 W/m2
03:06 39 °F 38.5 °F 30.3 in SW 2.9 mph 8 mph 98% 0 in 0 W/m2
03:11 39.2 °F 38.7 °F 30.3 in WSW 8.1 mph 10 mph 98% 0 in 0 W/m2
03:16 39.2 °F 38.7 °F 30.3 in NW 8.1 mph 10 mph 98% 0 in 0 W/m2
03:21 39.4 °F 38.8 °F 30.3 in West 8.9 mph 9 mph 98% 0 in 0 W/m2
03:26 39.4 °F 38.8 °F 30.3 in West 4 mph 7 mph 98% 0 in 0 W/m2
03:31 39.4 °F 38.8 °F 30.3 in WSW 2 mph 10 mph 98% 0 in 0 W/m2
03:37 39.6 °F 39 °F 30.3 in WNW 2.9 mph 7 mph 98% 0 in 0 W/m2
03:42 39.6 °F 39 °F 30.3 in WSW 4.9 mph 9 mph 98% 0 in 0 W/m2
03:47 39.6 °F 39 °F 30.3 in SW 2 mph 6 mph 98% 0 in 0 W/m2
03:52 39.6 °F 39 °F 30.3 in WSW 10.1 mph 12 mph 98% 0 in 0 W/m2
03:57 39.7 °F 39.2 °F 30.3 in SW 0.9 mph 7 mph 98% 0 in 0 W/m2
04:02 39.7 °F 39.2 °F 30.3 in WSW 6.9 mph 9 mph 98% 0 in 0 W/m2
04:07 39.7 °F 39.2 °F 30.3 in West 2.9 mph 6 mph 98% 0 in 0 W/m2
04:12 39.7 °F 39.2 °F 30.3 in WSW 4.9 mph 8 mph 98% 0 in 0 W/m2
04:17 39.9 °F 39.4 °F 30.3 in West 2.9 mph 8 mph 98% 0 in 0 W/m2
04:22 39.9 °F 39.4 °F 30.3 in SW 4.9 mph 9 mph 98% 0 in 0 W/m2
04:27 39.9 °F 39.4 °F 30.3 in WNW 4.9 mph 7 mph 98% 0 in 0 W/m2
04:32 40.1 °F 39.6 °F 30.3 in WSW 6.9 mph 9 mph 98% 0 in 0 W/m2
04:37 40.3 °F 39.7 °F 30.3 in West 6 mph 7 mph 98% 0 in 0 W/m2
04:42 40.3 °F 39.7 °F 30.3 in West 4 mph 9 mph 98% 0 in 0 W/m2
04:47 40.3 °F 39.7 °F 30.3 in West 2 mph 8 mph 98% 0 in 0 W/m2
04:52 40.3 °F 39.7 °F 30.3 in West 4 mph 10 mph 98% 0 in 0 W/m2
04:57 40.5 °F 39.9 °F 30.3 in WSW 8.9 mph 10 mph 98% 0 in 0 W/m2
05:02 40.5 °F 39.9 °F 30.3 in WSW 6.9 mph 11 mph 98% 0 in 0 W/m2
05:07 40.6 °F 40.1 °F 30.3 in WNW 4 mph 6 mph 98% 0 in 0 W/m2
05:12 40.6 °F 40.1 °F 30.3 in WSW 0.9 mph 5 mph 98% 0 in 0 W/m2
05:17 40.8 °F 40.3 °F 30.3 in SW 2.9 mph 9 mph 98% 0 in 0 W/m2
05:22 40.8 °F 40.3 °F 30.3 in WSW 4.9 mph 8 mph 98% 0 in 0 W/m2
05:27 41 °F 40.5 °F 30.3 in WSW 4.9 mph 6 mph 98% 0 in 0 W/m2
05:32 41 °F 40.3 °F 30.3 in West 4 mph 10 mph 97% 0 in 0 W/m2
05:37 41.2 °F 40.6 °F 30.3 in WSW 8.9 mph 9 mph 98% 0 in 0 W/m2
05:42 41.2 °F 40.6 °F 30.3 in SW 6 mph 9 mph 98% 0 in 0 W/m2
05:47 41.2 °F 40.5 °F 30.3 in WSW 2.9 mph 7 mph 97% 0 in 0 W/m2
05:53 41.4 °F 40.6 °F 30.3 in WSW 6.9 mph 7 mph 97% 0 in 0 W/m2
05:58 41.4 °F 40.6 °F 30.3 in West 4 mph 11 mph 97% 0 in 0 W/m2
06:03 41.4 °F 40.6 °F 30.3 in WNW 6.9 mph 9 mph 97% 0 in 0 W/m2
06:08 41.4 °F 40.6 °F 30.3 in WSW 2 mph 11 mph 97% 0 in 0 W/m2
06:13 41.4 °F 40.6 °F 30.3 in West 4 mph 6 mph 97% 0 in 0 W/m2
06:18 41.4 °F 40.6 °F 30.3 in West 2 mph 2 mph 97% 0 in 0 W/m2
06:23 41.5 °F 40.8 °F 30.3 in WNW 0.9 mph 4 mph 97% 0 in 0 W/m2
06:28 41.5 °F 40.8 °F 30.3 in South 4 mph 9 mph 97% 0 in 0 W/m2
06:33 41.5 °F 40.8 °F 30.3 in WNW 4 mph 7 mph 97% 0 in 0 W/m2
06:38 41.5 °F 40.8 °F 30.3 in West 2.9 mph 8 mph 97% 0 in 0 W/m2
06:43 41.5 °F 40.8 °F 30.3 in WSW 2 mph 5 mph 97% 0 in 0 W/m2
06:48 41.7 °F 41 °F 30.3 in West 2.9 mph 12 mph 97% 0 in 0 W/m2
06:53 41.7 °F 41 °F 30.3 in WSW 4 mph 8 mph 97% 0 in 0 W/m2
06:58 41.7 °F 41 °F 30.3 in WNW 6 mph 8 mph 97% 0 in 0 W/m2
07:03 41.7 °F 41 °F 30.4 in Calm   4 mph 97% 0 in 0 W/m2
07:08 41.7 °F 41 °F 30.4 in WSW 4.9 mph 6 mph 97% 0 in 0 W/m2
07:13 41.9 °F 41.2 °F 30.4 in West 2 mph 4 mph 97% 0 in 0 W/m2
07:18 41.9 °F 41.2 °F 30.4 in WSW 2.9 mph 4 mph 97% 0 in 0 W/m2
07:24 41.9 °F 41.2 °F 30.4 in West 4 mph 10 mph 97% 0 in 0 W/m2
07:29 41.9 °F 41.2 °F 30.4 in SW 2.9 mph   97% 0 in 0 W/m2
07:34 42.1 °F 41.4 °F 30.4 in West 2.9 mph 6 mph 97% 0 in 0 W/m2
07:39 42.1 °F 41.4 °F 30.4 in West 2 mph 5 mph 97% 0 in 0 W/m2
07:44 42.1 °F 41.4 °F 30.4 in SSW 2.9 mph 6 mph 97% 0 in 0 W/m2
07:49 42.3 °F 41.5 °F 30.4 in WSW 0.9 mph 4 mph 97% 0 in 0 W/m2
07:54 42.3 °F 41.5 °F 30.4 in WSW 0.9 mph 2 mph 97% 0 in 0 W/m2
07:59 42.3 °F 41.5 °F 30.4 in WSW 4.9 mph 6 mph 97% 0 in 0 W/m2
08:04 42.3 °F 41.5 °F 30.4 in West 4 mph 6 mph 97% 0 in 0 W/m2
08:09 42.3 °F 41.5 °F 30.4 in WSW 4 mph 5 mph 97% 0 in 0 W/m2
08:14 42.3 °F 41.5 °F 30.4 in WSW 2.9 mph 3 mph 97% 0 in 0 W/m2
08:19 42.3 °F 41.5 °F 30.4 in WNW 4 mph 9 mph 97% 0 in 0 W/m2
08:24 42.3 °F 41.5 °F 30.4 in West 2.9 mph 6 mph 97% 0 in 0 W/m2
08:29 42.3 °F 41.5 °F 30.4 in West 2 mph 9 mph 97% 0 in 0 W/m2
08:34 42.3 °F 41.5 °F 30.4 in Calm   2 mph 97% 0 in 0 W/m2
08:39 42.3 °F 41.5 °F 30.4 in Calm     97% 0 in 0 W/m2
08:44 42.3 °F 41.5 °F 30.4 in Calm   4 mph 97% 0 in 5 W/m2
08:49 42.3 °F 41.5 °F 30.4 in Calm   3 mph 97% 0 in 7 W/m2
08:54 42.3 °F 41.5 °F 30.4 in WSW 0.9 mph 1 mph 97% 0 in 11 W/m2
08:59 42.4 °F 41.7 °F 30.4 in West 0.9 mph 2 mph 97% 0 in 12 W/m2
09:04 42.4 °F 41.7 °F 30.4 in Calm     97% 0 in 19 W/m2
09:09 42.4 °F 41.7 °F 30.4 in Calm     97% 0 in 19 W/m2
09:14 42.4 °F 41.7 °F 30.4 in Calm     97% 0 in 33 W/m2
09:20 42.6 °F 41.9 °F 30.4 in Calm     97% 0 in 37 W/m2
09:25 42.6 °F 41.9 °F 30.4 in Calm   2 mph 97% 0 in 37 W/m2
09:30 42.6 °F 41.9 °F 30.4 in Calm     97% 0 in 58 W/m2
09:35 42.6 °F 41.9 °F 30.4 in Calm   3 mph 97% 0 in 47 W/m2
09:40 42.6 °F 41.9 °F 30.4 in Calm   2 mph 97% 0 in 40 W/m2
09:45 42.6 °F 41.9 °F 30.4 in SSE 2 mph 3 mph 97% 0 in 33 W/m2
09:50 42.8 °F 42.1 °F 30.4 in Calm   1 mph 97% 0 in 35 W/m2
09:55 42.8 °F 42.1 °F 30.4 in West 2.9 mph 3 mph 97% 0 in 81 W/m2
10:00 43 °F 42.3 °F 30.4 in WSW 4 mph 6 mph 97% 0 in 86 W/m2
10:05 43 °F 42.3 °F 30.4 in Calm   4 mph 97% 0 in 67 W/m2
10:10 43 °F 42.3 °F 30.4 in South 0.9 mph 6 mph 97% 0 in 69 W/m2
10:15 43 °F 42.3 °F 30.4 in WSW 6 mph 6 mph 97% 0 in 54 W/m2
10:20 43 °F 41.9 °F 30.4 in Calm   4 mph 96% 0 in 74 W/m2
10:25 43 °F 41.9 °F 30.4 in WSW 2.9 mph 4 mph 96% 0 in 97 W/m2
10:30 43.2 °F 42.1 °F 30.4 in West 2.9 mph 3 mph 96% 0 in 127 W/m2
10:35 43.3 °F 42.3 °F 30.4 in SSE 0.9 mph 8 mph 96% 0 in 90 W/m2
10:40 43.3 °F 42.3 °F 30.4 in WSW 2 mph 3 mph 96% 0 in 62 W/m2
10:45 43.3 °F 42.3 °F 30.4 in West 2.9 mph 4 mph 96% 0 in 37 W/m2
10:50 43.3 °F 42.3 °F 30.4 in SW 2 mph 5 mph 96% 0 in 18 W/m2
10:55 43.3 °F 42.3 °F 30.4 in Calm   2 mph 96% 0 in 12 W/m2
11:00 43.3 °F 42.3 °F 30.4 in SW 0.9 mph 3 mph 96% 0 in 14 W/m2
11:05 43.3 °F 42.3 °F 30.4 in WSW 6.9 mph 7 mph 96% 0 in 53 W/m2
11:10 43.3 °F 42.3 °F 30.4 in West 0.9 mph 1 mph 96% 0 in 40 W/m2
11:15 43.3 °F 42.3 °F 30.4 in Calm   4 mph 96% 0 in 44 W/m2
11:20 43.3 °F 42.3 °F 30.4 in Calm   8 mph 96% 0 in 65 W/m2
11:25 43.5 °F 42.4 °F 30.4 in WSW 4 mph 4 mph 96% 0 in 72 W/m2
11:30 43.5 °F 42.4 °F 30.4 in South 2 mph 7 mph 96% 0 in 83 W/m2
11:35 43.7 °F 42.6 °F 30.4 in Calm   3 mph 96% 0 in 81 W/m2
11:40 43.9 °F 42.8 °F 30.4 in West 6.9 mph 8 mph 96% 0 in 70 W/m2
11:45 43.9 °F 42.8 °F 30.4 in SW 0.9 mph 4 mph 96% 0 in 67 W/m2
11:50 43.9 °F 42.8 °F 30.4 in Calm   1 mph 96% 0 in 54 W/m2
11:55 44.1 °F 42.8 °F 30.4 in SW 2.9 mph 4 mph 95% 0 in 54 W/m2
12:00 44.1 °F 42.8 °F 30.4 in Calm   2 mph 95% 0 in 62 W/m2
12:05 44.1 °F 42.8 °F 30.4 in Calm   1 mph 95% 0 in 79 W/m2
12:10 44.1 °F 42.8 °F 30.4 in WSW 0.9 mph 1 mph 95% 0 in 69 W/m2
12:15 44.1 °F 42.8 °F 30.4 in Calm   3 mph 95% 0 in 65 W/m2
12:20 44.2 °F 43 °F 30.4 in SSW 2.9 mph 4 mph 95% 0 in 86 W/m2
12:25 44.2 °F 43 °F 30.4 in Calm     95% 0 in 83 W/m2
12:30 44.4 °F 43.2 °F 30.4 in Calm   7 mph 95% 0 in 72 W/m2
12:35 44.4 °F 43.2 °F 30.4 in West 0.9 mph 1 mph 95% 0 in 70 W/m2
12:40 44.4 °F 43.2 °F 30.4 in Calm   3 mph 95% 0 in 53 W/m2
12:45 44.6 °F 43.3 °F 30.4 in Calm     95% 0 in 81 W/m2
12:50 44.8 °F 43.2 °F 30.4 in Calm   2 mph 94% 0 in 107 W/m2
12:55 45 °F 43.3 °F 30.4 in Calm     94% 0 in 86 W/m2
13:00 45 °F 43.3 °F 30.4 in West 2.9 mph 3 mph 94% 0 in 74 W/m2
13:05 45.1 °F 43.5 °F 30.4 in Calm     94% 0 in 76 W/m2
13:10 45.1 °F 43.5 °F 30.4 in Calm   1 mph 94% 0 in 70 W/m2
13:15 45.1 °F 43.5 °F 30.4 in Calm     94% 0 in 102 W/m2
13:20 45.3 °F 43.3 °F 30.4 in Calm   1 mph 93% 0 in 84 W/m2
13:25 45.3 °F 43.3 °F 30.4 in Calm   3 mph 93% 0 in 100 W/m2
13:30 45.5 °F 43.5 °F 30.4 in Calm   2 mph 93% 0 in 104 W/m2
13:35 45.5 °F 43.5 °F 30.4 in SW 2 mph 4 mph 93% 0 in 121 W/m2
13:41 45.7 °F 43.5 °F 30.4 in Calm   3 mph 92% 0 in 111 W/m2
13:46 45.7 °F 43.5 °F 30.4 in Calm     92% 0 in 90 W/m2
13:51 45.9 °F 43.7 °F 30.4 in Calm   1 mph 92% 0 in 70 W/m2
13:56 45.7 °F 43.5 °F 30.4 in SSW 2 mph 3 mph 92% 0 in 63 W/m2
14:01 45.7 °F 43.2 °F 30.4 in Calm     91% 0 in 102 W/m2
14:06 45.9 °F 43.7 °F 30.4 in West 2.9 mph 6 mph 92% 0 in 95 W/m2
14:11 45.9 °F 43.3 °F 30.4 in Calm     91% 0 in 86 W/m2
14:16 45.9 °F 43.3 °F 30.4 in Calm   5 mph 91% 0 in 100 W/m2
14:21 45.9 °F 43.3 °F 30.4 in Calm   1 mph 91% 0 in 90 W/m2
14:26 45.9 °F 43.2 °F 30.4 in Calm   1 mph 90% 0 in 83 W/m2
14:31 45.9 °F 43.2 °F 30.4 in Calm     90% 0 in 76 W/m2
14:36 46 °F 43.3 °F 30.4 in Calm   1 mph 90% 0 in 86 W/m2
14:41 46 °F 43.3 °F 30.4 in WSW 2.9 mph 3 mph 90% 0 in 53 W/m2
14:46 46 °F 43.3 °F 30.4 in SW 0.9 mph 1 mph 90% 0 in 54 W/m2
14:51 46 °F 43 °F 30.4 in West 2 mph 2 mph 89% 0 in 60 W/m2
14:56 46 °F 43 °F 30.4 in Calm     89% 0 in 53 W/m2
15:01 46 °F 43 °F 30.4 in Calm     89% 0 in 51 W/m2
15:06 46 °F 43 °F 30.4 in Calm   2 mph 89% 0 in 56 W/m2
15:11 46 °F 43 °F 30.4 in Calm     89% 0 in 44 W/m2
15:16 46 °F 43 °F 30.4 in Calm   2 mph 89% 0 in 26 W/m2
15:22 45.9 °F 42.4 °F 30.4 in WSW 0.9 mph 2 mph 88% 0 in 19 W/m2
15:27 45.9 °F 42.4 °F 30.4 in Calm   2 mph 88% 0 in 46 W/m2
15:32 45.9 °F 42.4 °F 30.4 in Calm   2 mph 88% 0 in 58 W/m2
15:37 45.9 °F 42.4 °F 30.4 in Calm   1 mph 88% 0 in 42 W/m2
15:42 45.7 °F 42.3 °F 30.4 in Calm     88% 0 in 32 W/m2
15:47 45.7 °F 42.6 °F 30.4 in Calm   2 mph 89% 0 in 25 W/m2
15:52 45.7 °F 42.3 °F 30.4 in Calm     88% 0 in 35 W/m2
15:57 45.7 °F 42.3 °F 30.4 in Calm     88% 0 in 33 W/m2
16:02 45.7 °F 42.3 °F 30.4 in Calm     88% 0 in 30 W/m2
16:07 45.7 °F 42.3 °F 30.4 in Calm     88% 0 in 28 W/m2
16:12 45.5 °F 42.1 °F 30.4 in Calm     88% 0 in 30 W/m2
16:17 45.5 °F 42.4 °F 30.4 in Calm     89% 0 in 25 W/m2
16:22 45.3 °F 41.9 °F 30.4 in Calm     88% 0 in 25 W/m2
16:28 45.3 °F 42.3 °F 30.4 in Calm     89% 0 in 19 W/m2
16:33 45.3 °F 42.3 °F 30.4 in Calm     89% 0 in 11 W/m2
16:38 45.1 °F 42.1 °F 30.4 in Calm     89% 0 in 11 W/m2
16:43 45 °F 41.9 °F 30.4 in Calm     89% 0 in 7 W/m2
16:48 44.8 °F 42.1 °F 30.4 in ENE 0.9 mph 2 mph 90% 0 in 5 W/m2
16:53 44.6 °F 41.9 °F 30.4 in Calm     90% 0 in 0 W/m2
16:58 44.4 °F 41.7 °F 30.4 in Calm   2 mph 90% 0 in 0 W/m2
17:03 44.4 °F 41.7 °F 30.4 in Calm   1 mph 90% 0 in 0 W/m2
17:08 44.4 °F 41.7 °F 30.4 in Calm     90% 0 in 0 W/m2
17:13 44.4 °F 41.7 °F 30.4 in Calm   2 mph 90% 0 in 0 W/m2
17:18 44.2 °F 41.7 °F 30.4 in East 2.9 mph 3 mph 91% 0 in 0 W/m2
17:23 44.2 °F 41.7 °F 30.4 in Calm     91% 0 in 0 W/m2
17:28 44.2 °F 41.7 °F 30.4 in Calm     91% 0 in 0 W/m2
17:33 44.2 °F 41.7 °F 30.4 in Calm     91% 0 in 0 W/m2
17:38 44.2 °F 41.7 °F 30.4 in Calm     91% 0 in 0 W/m2
17:43 44.1 °F 41.5 °F 30.4 in Calm     91% 0 in 0 W/m2
17:48 43.9 °F 41.4 °F 30.4 in Calm     91% 0 in 0 W/m2
17:53 43.9 °F 41.4 °F 30.4 in Calm   2 mph 91% 0 in 0 W/m2
17:58 43.7 °F 41.2 °F 30.4 in Calm     91% 0 in 0 W/m2
18:03 43.5 °F 41 °F 30.4 in Calm     91% 0 in 0 W/m2
18:08 43.2 °F 40.6 °F 30.4 in Calm     91% 0 in 0 W/m2
18:13 43 °F 40.3 °F 30.4 in Calm     90% 0 in 0 W/m2
18:18 42.6 °F 40.1 °F 30.4 in Calm     91% 0 in 0 W/m2
18:23 42.3 °F 39.7 °F 30.4 in Calm     91% 0 in 0 W/m2
18:28 42.1 °F 39.6 °F 30.4 in Calm     91% 0 in 0 W/m2
18:33 41.7 °F 39.6 °F 30.4 in NW 0.9 mph 1 mph 92% 0 in 0 W/m2
18:38 41.4 °F 39 °F 30.4 in Calm   1 mph 91% 0 in 0 W/m2
18:43 41 °F 38.8 °F 30.4 in Calm     92% 0 in 0 W/m2
18:48 40.6 °F 38.5 °F 30.4 in Calm     92% 0 in 0 W/m2
18:53 40.3 °F 38.1 °F 30.4 in Calm     92% 0 in 0 W/m2
18:58 39.9 °F 37.8 °F 30.4 in Calm     92% 0 in 0 W/m2
19:03 39.7 °F 37.9 °F 30.4 in Calm     93% 0 in 0 W/m2
19:08 39.6 °F 37.8 °F 30.4 in WNW 0.9 mph 4 mph 93% 0 in 0 W/m2
19:13 39.6 °F 37.8 °F 30.4 in Calm     93% 0 in 0 W/m2
19:18 39.4 °F 37.6 °F 30.4 in Calm   1 mph 93% 0 in 0 W/m2
19:23 39.7 °F 38.1 °F 30.4 in Calm   1 mph 94% 0 in 0 W/m2
19:28 39.7 °F 38.1 °F 30.4 in Calm     94% 0 in 0 W/m2
19:33 39.9 °F 38.3 °F 30.4 in Calm     94% 0 in 0 W/m2
19:38 39.9 °F 38.3 °F 30.4 in Calm     94% 0 in 0 W/m2
19:44 39.9 °F 38.1 °F 30.4 in Calm     93% 0 in 0 W/m2
19:49 39.6 °F 37.8 °F 30.4 in Calm     93% 0 in 0 W/m2
19:54 39.4 °F 37.8 °F 30.4 in NW 0.9 mph 4 mph 94% 0 in 0 W/m2
19:59 39.6 °F 37.9 °F 30.4 in NW 0.9 mph 5 mph 94% 0 in 0 W/m2
20:04 39.7 °F 38.1 °F 30.4 in WNW 4 mph 6 mph 94% 0 in 0 W/m2
20:09 39.7 °F 38.1 °F 30.4 in WNW 0.9 mph 1 mph 94% 0 in 0 W/m2
20:14 39.7 °F 38.1 °F 30.4 in Calm   3 mph 94% 0 in 0 W/m2
20:20 39.7 °F 38.1 °F 30.4 in Calm   1 mph 94% 0 in 0 W/m2
20:25 39.6 °F 37.8 °F 30.4 in Calm   2 mph 93% 0 in 0 W/m2
20:30 39.4 °F 37.6 °F 30.4 in Calm     93% 0 in 0 W/m2
20:35 39 °F 37.2 °F 30.4 in Calm     93% 0 in 0 W/m2
20:40 38.8 °F 37 °F 30.4 in Calm   1 mph 93% 0 in 0 W/m2
20:45 38.7 °F 36.9 °F 30.4 in Calm     93% 0 in 0 W/m2
20:50 38.7 °F 37 °F 30.4 in Calm     94% 0 in 0 W/m2
20:55 38.3 °F 36.5 °F 30.4 in Calm     93% 0 in 0 W/m2
21:00 37.9 °F 36.3 °F 30.4 in Calm     94% 0 in 0 W/m2
21:05 37.8 °F 36.1 °F 30.4 in Calm     94% 0 in 0 W/m2
21:10 37.8 °F 36.1 °F 30.4 in Calm   1 mph 94% 0 in 0 W/m2
21:15 37.8 °F 36.5 °F 30.4 in Calm   1 mph 95% 0 in 0 W/m2
21:20 37.8 °F 36.5 °F 30.4 in ESE 0.9 mph 2 mph 95% 0 in 0 W/m2
21:25 37.6 °F 36 °F 30.4 in Calm   1 mph 94% 0 in 0 W/m2
21:30 37.8 °F 36.5 °F 30.4 in Calm   2 mph 95% 0 in 0 W/m2
21:35 37.8 °F 36.5 °F 30.4 in Calm     95% 0 in 0 W/m2
21:40 37.8 °F 36.5 °F 30.4 in Calm   2 mph 95% 0 in 0 W/m2
21:45 37.8 °F 36.5 °F 30.4 in Calm     95% 0 in 0 W/m2
21:51 37.8 °F 36.5 °F 30.4 in Calm     95% 0 in 0 W/m2
21:56 37.6 °F 36.3 °F 30.4 in Calm     95% 0 in 0 W/m2
22:01 37.6 °F 36.3 °F 30.4 in Calm     95% 0 in 0 W/m2
22:06 37.8 °F 36.7 °F 30.4 in Calm     96% 0 in 0 W/m2
22:11 37.9 °F 36.9 °F 30.4 in Calm     96% 0 in 0 W/m2
22:16 37.9 °F 36.7 °F 30.4 in Calm     95% 0 in 0 W/m2
22:21 38.1 °F 37 °F 30.4 in Calm   2 mph 96% 0 in 0 W/m2
22:26 38.1 °F 36.9 °F 30.4 in Calm     95% 0 in 0 W/m2
22:31 38.1 °F 37 °F 30.4 in Calm     96% 0 in 0 W/m2
22:36 38.1 °F 36.9 °F 30.4 in WNW 0.9 mph 3 mph 95% 0 in 0 W/m2
22:41 38.1 °F 36.9 °F 30.4 in Calm   2 mph 95% 0 in 0 W/m2
22:46 38.1 °F 36.9 °F 30.4 in Calm   3 mph 95% 0 in 0 W/m2
22:51 37.8 °F 36.5 °F 30.4 in Calm     95% 0 in 0 W/m2
22:56 37.6 °F 36 °F 30.4 in Calm     94% 0 in 0 W/m2
23:01 37.2 °F 36 °F 30.4 in East 0.9 mph 2 mph 95% 0 in 0 W/m2
23:07 37 °F 35.8 °F 30.4 in Calm     95% 0 in 0 W/m2
23:12 37 °F 35.8 °F 30.4 in Calm   1 mph 95% 0 in 0 W/m2
23:17 36.9 °F 35.6 °F 30.4 in Calm     95% 0 in 0 W/m2
23:22 36.9 °F 35.6 °F 30.4 in Calm   1 mph 95% 0 in 0 W/m2
23:27 36.9 °F 35.6 °F 30.4 in Calm     95% 0 in 0 W/m2
23:32 36.9 °F 35.6 °F 30.4 in Calm     95% 0 in 0 W/m2
23:37 37 °F 35.8 °F 30.4 in Calm   1 mph 95% 0 in 0 W/m2
23:42 37 °F 36 °F 30.4 in Calm     96% 0 in 0 W/m2
23:47 37.2 °F 36.1 °F 30.4 in ESE 0.9 mph 2 mph 96% 0 in 0 W/m2
23:52 37.4 °F 36.3 °F 30.4 in ESE 2 mph 2 mph 96% 0 in 0 W/m2
23:57 37.4 °F 36.3 °F 30.4 in ESE 2 mph 3 mph 96% 0 in 0 W/m2
Juneau County Weather
Compliments of Weather Underground - 4 mb